Time;durP1;ratioP1;P1;durP2;ratioP2;P2;SDS_P1;SDS_P2;PMS_P1;PMS_P2;Temp;Humidity;BMP_temperature;BMP_pressure;BME280_temperature;BME280_humidity;BME280_pressure;Samples;Min_cycle;Max_cycle;Signal;HPM_P1;HPM_P2
2022/01/18 00:01:25;;;;;;;14.80;9.20;;;;;;;;;;5069847;28;20441;-88
2022/01/18 00:03:51;;;;;;;19.30;9.60;;;;;;;;;;5073445;28;20420;-88
2022/01/18 00:06:17;;;;;;;19.33;10.57;;;;;;;;;;5071950;28;20408;-87
2022/01/18 00:08:43;;;;;;;18.67;10.43;;;;;;;;;;5075650;28;20440;-87
2022/01/18 00:11:09;;;;;;;20.20;11.87;;;;;;;;;;5072468;28;20421;-88
2022/01/18 00:13:44;;;;;;;21.73;10.67;;;;;;;;;;5078913;28;20484;-88
2022/01/18 00:16:26;;;;;;;20.20;10.97;;;;;;;;;;5072535;28;20519;-87
2022/01/18 00:18:53;;;;;;;20.13;11.20;;;;;;;;;;5067414;28;20503;-87
2022/01/18 00:21:50;;;;;;;23.40;11.97;;;;;;;;;;5070141;28;20424;-87
2022/01/18 00:24:17;;;;;;;24.60;12.77;;;;;;;;;;5074198;28;20524;-87
2022/01/18 00:26:43;;;;;;;23.60;12.40;;;;;;;;;;5075789;28;20428;-87
2022/01/18 00:29:13;;;;;;;24.67;12.37;;;;;;;;;;5076320;28;20519;-87
2022/01/18 00:39:12;;;;;;;29.47;14.37;;;;;;;;;;5075695;28;20428;-87
2022/01/18 00:41:39;;;;;;;26.13;13.67;;;;;;;;;;5071575;28;20429;-87
2022/01/18 00:44:06;;;;;;;28.37;14.47;;;;;;;;;;5074004;28;21228;-87
2022/01/18 00:46:33;;;;;;;24.03;13.77;;;;;;;;;;5067348;28;20570;-87
2022/01/18 00:49:01;;;;;;;24.33;13.13;;;;;;;;;;5072509;28;20543;-87
2022/01/18 00:51:28;;;;;;;20.73;12.57;;;;;;;;;;5079671;28;20409;-87
2022/01/18 00:53:57;;;;;;;23.10;13.40;;;;;;;;;;5073572;28;20448;-88
2022/01/18 00:56:26;;;;;;;23.03;13.27;;;;;;;;;;5073331;28;20412;-87
2022/01/18 00:58:53;;;;;;;27.07;14.20;;;;;;;;;;5078546;28;20427;-87
2022/01/18 01:01:20;;;;;;;25.57;13.53;;;;;;;;;;5077835;28;20433;-87
2022/01/18 01:03:47;;;;;;;22.20;12.27;;;;;;;;;;5081475;28;20421;-87
2022/01/18 01:06:13;;;;;;;23.17;12.80;;;;;;;;;;5076024;28;20456;-87
2022/01/18 01:08:39;;;;;;;23.17;12.97;;;;;;;;;;5072038;28;20431;-87
2022/01/18 01:11:06;;;;;;;26.13;13.07;;;;;;;;;;5073569;28;20607;-87
2022/01/18 01:13:33;;;;;;;23.43;12.90;;;;;;;;;;5078261;28;20455;-87
2022/01/18 01:43:23;;;;;;;28.30;15.17;;;;;;;;;;5075091;28;20521;-87
2022/01/18 01:45:50;;;;;;;25.73;14.00;;;;;;;;;;5073732;28;20774;-87
2022/01/18 01:48:18;;;;;;;36.40;19.37;;;;;;;;;;5073590;28;20440;-87
2022/01/18 01:50:48;;;;;;;28.20;14.73;;;;;;;;;;5078425;28;21323;-88
2022/01/18 01:53:15;;;;;;;25.37;14.30;;;;;;;;;;5072246;28;21167;-87
2022/01/18 01:55:42;;;;;;;31.87;16.97;;;;;;;;;;5073320;28;20429;-87
2022/01/18 01:58:08;;;;;;;29.27;15.17;;;;;;;;;;5077517;28;20416;-87
2022/01/18 02:00:35;;;;;;;31.13;15.70;;;;;;;;;;5078508;28;20413;-87
2022/01/18 02:03:01;;;;;;;28.27;16.17;;;;;;;;;;5050142;28;20521;-87
2022/01/18 02:05:27;;;;;;;27.20;15.07;;;;;;;;;;5053343;28;20412;-87
2022/01/18 02:07:53;;;;;;;28.30;15.50;;;;;;;;;;5053797;28;20479;-87
2022/01/18 02:10:19;;;;;;;24.77;14.83;;;;;;;;;;5052005;28;20828;-87
2022/01/18 02:12:45;;;;;;;27.43;14.57;;;;;;;;;;5051530;28;20493;-87
2022/01/18 02:15:16;;;;;;;23.97;15.00;;;;;;;;;;5053706;28;20422;-87
2022/01/18 02:23:19;;;;;;;29.00;15.13;;;;;;;;;;5053918;28;20471;-87
2022/01/18 02:25:45;;;;;;;25.20;14.70;;;;;;;;;;5063078;28;20432;-88
2022/01/18 02:28:12;;;;;;;22.90;13.37;;;;;;;;;;5072299;28;20413;-87
2022/01/18 02:30:38;;;;;;;25.43;13.93;;;;;;;;;;5073884;28;20423;-87
2022/01/18 02:33:04;;;;;;;25.93;14.67;;;;;;;;;;5068937;28;20907;-88
2022/01/18 02:35:37;;;;;;;25.53;14.27;;;;;;;;;;5073666;28;20505;-87
2022/01/18 02:38:03;;;;;;;23.77;14.50;;;;;;;;;;5078725;28;20484;-87
2022/01/18 02:40:30;;;;;;;23.23;13.77;;;;;;;;;;5079793;28;20421;-87
2022/01/18 02:43:00;;;;;;;26.20;14.53;;;;;;;;;;5067129;28;20416;-87
2022/01/18 02:45:26;;;;;;;25.27;13.63;;;;;;;;;;5076834;28;20483;-87
2022/01/18 02:47:53;;;;;;;27.90;14.50;;;;;;;;;;5077106;28;20504;-86
2022/01/18 02:50:19;;;;;;;23.80;14.33;;;;;;;;;;5074187;28;20412;-87
2022/01/18 02:52:45;;;;;;;23.93;14.20;;;;;;;;;;5074724;28;20421;-87
2022/01/18 02:55:11;;;;;;;27.50;14.90;;;;;;;;;;5072351;28;21152;-87
2022/01/18 02:57:52;;;;;;;29.17;15.73;;;;;;;;;;5074895;28;20435;-87
2022/01/18 03:00:27;;;;;;;25.50;15.17;;;;;;;;;;5073231;28;20417;-88
2022/01/18 03:03:16;;;;;;;29.37;15.80;;;;;;;;;;5077689;28;20420;-88
2022/01/18 03:05:43;;;;;;;31.70;16.40;;;;;;;;;;5072234;28;20429;-87
2022/01/18 03:08:10;;;;;;;29.43;16.63;;;;;;;;;;5073483;28;20437;-87
2022/01/18 03:10:37;;;;;;;30.67;16.30;;;;;;;;;;5072587;28;20525;-87
2022/01/18 03:13:03;;;;;;;31.73;16.90;;;;;;;;;;5072753;28;22386;-87
2022/01/18 03:15:29;;;;;;;27.30;15.20;;;;;;;;;;5071116;28;21106;-87
2022/01/18 03:17:55;;;;;;;29.80;15.60;;;;;;;;;;5074341;28;20432;-88
2022/01/18 03:20:22;;;;;;;25.80;14.93;;;;;;;;;;5077457;28;20420;-87
2022/01/18 03:22:50;;;;;;;28.10;15.23;;;;;;;;;;5076583;28;20512;-87
2022/01/18 03:25:28;;;;;;;27.90;15.30;;;;;;;;;;5074613;28;20539;-87
2022/01/18 03:28:05;;;;;;;26.43;15.40;;;;;;;;;;5069794;28;20459;-87
2022/01/18 03:30:35;;;;;;;27.70;15.07;;;;;;;;;;5073851;28;20531;-87
2022/01/18 03:33:02;;;;;;;27.00;15.37;;;;;;;;;;5075157;28;20421;-87
2022/01/18 03:35:28;;;;;;;23.47;15.20;;;;;;;;;;5075473;28;21162;-87
2022/01/18 03:37:54;;;;;;;25.17;15.63;;;;;;;;;;5073269;28;20417;-87
2022/01/18 03:40:20;;;;;;;28.33;15.77;;;;;;;;;;5072899;28;20451;-87
2022/01/18 03:42:47;;;;;;;30.27;17.30;;;;;;;;;;5072630;28;20415;-88
2022/01/18 03:45:18;;;;;;;27.73;16.43;;;;;;;;;;5070463;28;20433;-87
2022/01/18 03:47:45;;;;;;;33.43;17.00;;;;;;;;;;5073084;28;20487;-86
2022/01/18 03:50:12;;;;;;;29.90;17.37;;;;;;;;;;5072515;28;20536;-87
2022/01/18 03:52:39;;;;;;;29.57;17.13;;;;;;;;;;5072016;28;20426;-88
2022/01/18 03:55:06;;;;;;;33.97;17.70;;;;;;;;;;5073016;28;20457;-87
2022/01/18 03:57:32;;;;;;;32.67;16.63;;;;;;;;;;5073081;28;20413;-87
2022/01/18 03:59:58;;;;;;;31.90;17.90;;;;;;;;;;5072370;28;20417;-87
2022/01/18 04:02:24;;;;;;;29.27;18.23;;;;;;;;;;5073739;28;21138;-87
2022/01/18 04:04:51;;;;;;;30.57;18.53;;;;;;;;;;5073208;28;20429;-88
2022/01/18 04:07:17;;;;;;;29.17;18.47;;;;;;;;;;5073554;28;21551;-87
2022/01/18 04:09:43;;;;;;;32.00;17.83;;;;;;;;;;5072853;28;21328;-87
2022/01/18 04:12:09;;;;;;;30.10;18.30;;;;;;;;;;5073958;28;20490;-87
2022/01/18 04:14:35;;;;;;;32.40;18.63;;;;;;;;;;5066124;28;20543;-87
2022/01/18 04:27:59;;;;;;;49.53;28.83;;;;;;;;;;5068805;28;20459;-86
2022/01/18 04:30:25;;;;;;;65.73;35.77;;;;;;;;;;5075409;28;20644;-87
2022/01/18 04:32:51;;;;;;;83.30;44.40;;;;;;;;;;5071433;28;20455;-87
2022/01/18 04:35:17;;;;;;;67.70;39.83;;;;;;;;;;5071542;28;21258;-87
2022/01/18 04:37:44;;;;;;;64.97;36.40;;;;;;;;;;5068597;28;21359;-87
2022/01/18 04:40:14;;;;;;;63.50;35.07;;;;;;;;;;5072465;28;21212;-87
2022/01/18 04:50:50;;;;;;;57.40;33.20;;;;;;;;;;5072556;28;21105;-87
2022/01/18 04:53:16;;;;;;;65.93;35.70;;;;;;;;;;5072745;28;20465;-87
2022/01/18 04:55:42;;;;;;;61.27;32.50;;;;;;;;;;5067883;28;20520;-87
2022/01/18 04:58:08;;;;;;;66.07;35.73;;;;;;;;;;5067669;28;20425;-88
2022/01/18 05:00:34;;;;;;;66.07;36.97;;;;;;;;;;5071229;28;21280;-87
2022/01/18 05:03:00;;;;;;;73.17;39.57;;;;;;;;;;5070590;28;20459;-88
2022/01/18 05:05:29;;;;;;;70.00;39.33;;;;;;;;;;5071260;28;20513;-88
2022/01/18 05:08:02;;;;;;;71.03;38.33;;;;;;;;;;5066542;28;20432;-87
2022/01/18 05:10:29;;;;;;;62.37;37.33;;;;;;;;;;5069846;28;21156;-87
2022/01/18 05:12:57;;;;;;;64.73;36.63;;;;;;;;;;5070888;28;20455;-87
2022/01/18 05:21:08;;;;;;;56.40;31.93;;;;;;;;;;5059130;28;20409;-87
2022/01/18 05:23:29;;;;;;;55.63;31.40;;;;;;;;;;5067248;28;20424;-87
2022/01/18 05:25:55;;;;;;;59.13;31.17;;;;;;;;;;5069841;28;20440;-88
2022/01/18 05:28:21;;;;;;;61.47;31.70;;;;;;;;;;5074986;28;20425;-87
2022/01/18 05:30:47;;;;;;;57.60;29.13;;;;;;;;;;5068127;28;20419;-87
2022/01/18 05:33:14;;;;;;;51.07;27.60;;;;;;;;;;5070426;28;20499;-87
2022/01/18 05:35:40;;;;;;;54.10;28.33;;;;;;;;;;5068279;28;20428;-88
2022/01/18 05:38:06;;;;;;;54.73;29.03;;;;;;;;;;5075524;28;21028;-88
2022/01/18 05:40:32;;;;;;;51.40;28.57;;;;;;;;;;5071794;28;20424;-87
2022/01/18 05:42:59;;;;;;;52.43;29.37;;;;;;;;;;5068744;28;20428;-85
2022/01/18 05:45:26;;;;;;;53.13;28.27;;;;;;;;;;5073521;28;20416;-85
2022/01/18 05:47:52;;;;;;;55.67;30.37;;;;;;;;;;5075662;28;20416;-85
2022/01/18 05:50:18;;;;;;;51.33;28.70;;;;;;;;;;5076854;28;20464;-88
2022/01/18 05:52:44;;;;;;;72.23;34.97;;;;;;;;;;5073289;28;20413;-87
2022/01/18 05:55:10;;;;;;;77.40;35.93;;;;;;;;;;5075697;28;21414;-88
2022/01/18 05:57:38;;;;;;;88.97;40.63;;;;;;;;;;5074717;28;20805;-88
2022/01/18 06:00:05;;;;;;;92.00;42.73;;;;;;;;;;5072306;28;20475;-87
2022/01/18 06:02:43;;;;;;;84.90;41.77;;;;;;;;;;5072490;28;20428;-87
2022/01/18 06:07:55;;;;;;;93.27;42.97;;;;;;;;;;5072082;28;20460;-88
2022/01/18 06:10:22;;;;;;;93.90;44.60;;;;;;;;;;5069735;28;20425;-87
2022/01/18 06:12:50;;;;;;;90.63;43.53;;;;;;;;;;5072972;28;21232;-88
2022/01/18 06:15:16;;;;;;;92.80;45.37;;;;;;;;;;5067343;28;20458;-86
2022/01/18 06:17:42;;;;;;;109.13;47.50;;;;;;;;;;5070424;28;20466;-87
2022/01/18 06:20:09;;;;;;;134.20;56.33;;;;;;;;;;5070358;28;20427;-87
2022/01/18 06:22:35;;;;;;;129.20;55.73;;;;;;;;;;5070287;28;20428;-86
2022/01/18 06:25:01;;;;;;;122.77;54.47;;;;;;;;;;5064596;28;20441;-86
2022/01/18 06:27:27;;;;;;;143.20;58.10;;;;;;;;;;5063574;28;20550;-86
2022/01/18 06:29:55;;;;;;;159.80;63.47;;;;;;;;;;5074963;28;20421;-90
2022/01/18 06:32:21;;;;;;;179.37;71.20;;;;;;;;;;5069743;28;21080;-87
2022/01/18 06:34:47;;;;;;;198.87;75.37;;;;;;;;;;5070428;28;20455;-87
2022/01/18 06:37:14;;;;;;;183.07;72.33;;;;;;;;;;5071479;28;20433;-87
2022/01/18 06:39:40;;;;;;;193.10;72.27;;;;;;;;;;5064914;28;20424;-87
2022/01/18 06:42:06;;;;;;;214.53;77.03;;;;;;;;;;5070455;28;20460;-87
2022/01/18 06:44:32;;;;;;;188.57;70.77;;;;;;;;;;5065830;28;20433;-87
2022/01/18 06:46:58;;;;;;;214.47;80.20;;;;;;;;;;5070371;28;21286;-87
2022/01/18 06:49:25;;;;;;;216.70;79.50;;;;;;;;;;5070512;28;21276;-87
2022/01/18 06:51:51;;;;;;;233.03;82.43;;;;;;;;;;5066259;28;20503;-87
2022/01/18 06:54:18;;;;;;;233.70;83.53;;;;;;;;;;5066071;28;20453;-87
2022/01/18 06:56:47;;;;;;;281.10;93.53;;;;;;;;;;5065868;28;20471;-88
2022/01/18 06:59:13;;;;;;;281.60;91.83;;;;;;;;;;5066248;28;20428;-87
2022/01/18 07:01:40;;;;;;;273.87;91.50;;;;;;;;;;5065583;28;20691;-87
2022/01/18 07:04:06;;;;;;;291.53;92.37;;;;;;;;;;5070381;28;21417;-87
2022/01/18 07:06:33;;;;;;;310.43;92.03;;;;;;;;;;5060936;28;20606;-88
2022/01/18 07:09:00;;;;;;;281.97;89.03;;;;;;;;;;5058642;28;20437;-88
2022/01/18 07:11:26;;;;;;;294.93;95.37;;;;;;;;;;5061240;28;20549;-87
2022/01/18 07:13:52;;;;;;;280.23;91.27;;;;;;;;;;5060897;28;20556;-88
2022/01/18 07:16:18;;;;;;;316.87;95.83;;;;;;;;;;5061271;28;20495;-87
2022/01/18 07:18:44;;;;;;;310.83;98.30;;;;;;;;;;5062821;28;20520;-88
2022/01/18 07:21:11;;;;;;;343.87;101.07;;;;;;;;;;5064933;28;20486;-88
2022/01/18 07:23:38;;;;;;;331.83;95.60;;;;;;;;;;5061502;28;20429;-88
2022/01/18 07:26:04;;;;;;;286.83;92.30;;;;;;;;;;5061506;28;20429;-88
2022/01/18 07:28:30;;;;;;;364.23;95.90;;;;;;;;;;5063650;28;20437;-87
2022/01/18 07:30:57;;;;;;;249.07;86.40;;;;;;;;;;5066026;28;20560;-87
2022/01/18 07:33:23;;;;;;;267.03;88.20;;;;;;;;;;5072479;28;20567;-87
2022/01/18 07:35:49;;;;;;;261.37;85.53;;;;;;;;;;5070730;28;20502;-87
2022/01/18 07:38:17;;;;;;;288.47;88.73;;;;;;;;;;5069308;28;20449;-87
2022/01/18 07:40:48;;;;;;;251.27;84.20;;;;;;;;;;5072697;28;20447;-87
2022/01/18 07:43:18;;;;;;;301.37;90.27;;;;;;;;;;5072931;28;20442;-87
2022/01/18 07:45:48;;;;;;;289.30;92.53;;;;;;;;;;5069005;28;20419;-86
2022/01/18 07:48:14;;;;;;;298.40;93.57;;;;;;;;;;5067532;28;20415;-86
2022/01/18 07:50:41;;;;;;;255.67;89.67;;;;;;;;;;5074361;28;20416;-87
2022/01/18 07:53:07;;;;;;;243.97;83.87;;;;;;;;;;5071555;28;20413;-87
2022/01/18 07:55:33;;;;;;;269.33;85.43;;;;;;;;;;5075360;28;20424;-86
2022/01/18 07:58:00;;;;;;;249.00;82.13;;;;;;;;;;5073077;28;20431;-87
2022/01/18 08:00:27;;;;;;;230.40;81.43;;;;;;;;;;5068813;28;20420;-87
2022/01/18 08:02:53;;;;;;;233.13;80.77;;;;;;;;;;5072699;28;20456;-87
2022/01/18 08:05:19;;;;;;;335.97;93.37;;;;;;;;;;5072170;28;21043;-87
2022/01/18 08:07:45;;;;;;;301.47;90.03;;;;;;;;;;5072361;28;20441;-87
2022/01/18 08:10:13;;;;;;;265.63;82.47;;;;;;;;;;5069205;28;21023;-87
2022/01/18 08:12:39;;;;;;;231.73;79.43;;;;;;;;;;5071704;28;20413;-87
2022/01/18 08:15:12;;;;;;;240.60;80.83;;;;;;;;;;5076225;28;20452;-87
2022/01/18 08:17:39;;;;;;;294.33;88.93;;;;;;;;;;5072856;28;21073;-87
2022/01/18 08:20:05;;;;;;;247.43;84.20;;;;;;;;;;5069182;28;20455;-87
2022/01/18 08:22:31;;;;;;;254.70;80.70;;;;;;;;;;5074309;28;20760;-86
2022/01/18 08:24:57;;;;;;;233.83;78.53;;;;;;;;;;5074769;28;20527;-87
2022/01/18 08:27:23;;;;;;;214.00;76.07;;;;;;;;;;5069232;28;20428;-87
2022/01/18 08:29:49;;;;;;;196.07;73.60;;;;;;;;;;5070301;28;20535;-88
2022/01/18 08:32:16;;;;;;;212.87;75.00;;;;;;;;;;5073871;28;21485;-87
2022/01/18 08:34:43;;;;;;;189.37;69.20;;;;;;;;;;5075371;28;20959;-86
2022/01/18 08:37:09;;;;;;;345.10;90.93;;;;;;;;;;5071951;28;21188;-86
2022/01/18 08:39:35;;;;;;;240.00;77.90;;;;;;;;;;5073784;28;20425;-87
2022/01/18 08:42:01;;;;;;;203.33;77.00;;;;;;;;;;5073664;28;20486;-87
2022/01/18 08:44:27;;;;;;;222.33;75.33;;;;;;;;;;5076951;28;20507;-87
2022/01/18 08:46:53;;;;;;;221.73;77.23;;;;;;;;;;5069012;28;20428;-86
2022/01/18 08:49:19;;;;;;;205.47;77.83;;;;;;;;;;5075921;28;20417;-86
2022/01/18 08:51:45;;;;;;;202.77;75.67;;;;;;;;;;5070660;28;20414;-85
2022/01/18 08:54:12;;;;;;;244.03;77.40;;;;;;;;;;5070782;28;20449;-84
2022/01/18 08:56:38;;;;;;;222.83;73.07;;;;;;;;;;5070385;28;20424;-84
2022/01/18 08:59:04;;;;;;;177.60;66.17;;;;;;;;;;5071517;28;20441;-84
2022/01/18 09:01:30;;;;;;;160.97;68.07;;;;;;;;;;5071498;28;21303;-84
2022/01/18 09:03:56;;;;;;;170.23;65.73;;;;;;;;;;5070790;28;21189;-85
2022/01/18 09:06:24;;;;;;;178.40;69.27;;;;;;;;;;5069751;28;20421;-84
2022/01/18 09:08:56;;;;;;;195.47;72.43;;;;;;;;;;5080357;28;20673;-87
2022/01/18 09:11:24;;;;;;;194.63;71.00;;;;;;;;;;5079442;28;20420;-87
2022/01/18 09:13:50;;;;;;;232.00;76.90;;;;;;;;;;5072727;28;20448;-87
2022/01/18 09:16:16;;;;;;;271.00;82.47;;;;;;;;;;5079609;28;20476;-87
2022/01/18 09:18:43;;;;;;;187.50;71.73;;;;;;;;;;5074032;28;20420;-87
2022/01/18 09:21:09;;;;;;;181.80;70.47;;;;;;;;;;5075160;28;20416;-86
2022/01/18 09:23:38;;;;;;;165.87;66.47;;;;;;;;;;5074125;28;20428;-86
2022/01/18 09:26:04;;;;;;;178.70;69.53;;;;;;;;;;5074204;28;20449;-88
2022/01/18 09:28:31;;;;;;;170.33;66.27;;;;;;;;;;5074905;28;20425;-87
2022/01/18 09:30:57;;;;;;;157.03;65.63;;;;;;;;;;5070676;28;20438;-87
2022/01/18 09:33:23;;;;;;;157.00;65.10;;;;;;;;;;5075155;28;20466;-88
2022/01/18 09:35:50;;;;;;;156.47;65.43;;;;;;;;;;5071746;28;20423;-88
2022/01/18 09:38:16;;;;;;;161.43;64.93;;;;;;;;;;5077384;28;20433;-88
2022/01/18 09:40:44;;;;;;;227.90;76.20;;;;;;;;;;5071543;28;20536;-88
2022/01/18 09:43:13;;;;;;;169.67;67.77;;;;;;;;;;5071667;28;20447;-88
2022/01/18 09:45:41;;;;;;;190.47;71.47;;;;;;;;;;5074451;28;20461;-88
2022/01/18 09:48:07;;;;;;;194.17;73.07;;;;;;;;;;5073297;28;20417;-88
2022/01/18 09:50:35;;;;;;;209.33;76.00;;;;;;;;;;5074719;28;20428;-88
2022/01/18 09:53:03;;;;;;;185.17;72.93;;;;;;;;;;5075030;28;20421;-87
2022/01/18 09:55:30;;;;;;;183.17;74.97;;;;;;;;;;5075753;28;20452;-88
2022/01/18 09:57:57;;;;;;;204.20;73.70;;;;;;;;;;5074275;28;20548;-88
2022/01/18 10:00:25;;;;;;;190.17;72.73;;;;;;;;;;5075637;28;20417;-88
2022/01/18 10:02:51;;;;;;;168.63;67.43;;;;;;;;;;5077986;28;20420;-88
2022/01/18 10:05:25;;;;;;;191.57;74.13;;;;;;;;;;5077998;28;20412;-87
2022/01/18 10:07:58;;;;;;;191.37;76.10;;;;;;;;;;5074919;28;20447;-87
2022/01/18 10:10:36;;;;;;;158.23;68.47;;;;;;;;;;5074006;28;20433;-87
2022/01/18 10:13:03;;;;;;;185.27;75.30;;;;;;;;;;5070286;28;20811;-87
2022/01/18 10:15:29;;;;;;;170.20;69.23;;;;;;;;;;5077272;28;21363;-87
2022/01/18 10:18:03;;;;;;;179.27;71.70;;;;;;;;;;5075662;28;20416;-87
2022/01/18 10:20:29;;;;;;;150.80;64.80;;;;;;;;;;5071016;28;20463;-87
2022/01/18 10:22:56;;;;;;;146.47;64.30;;;;;;;;;;5074658;28;20539;-87
2022/01/18 10:25:26;;;;;;;148.87;67.63;;;;;;;;;;5072421;28;20436;-87
2022/01/18 10:27:53;;;;;;;146.37;66.27;;;;;;;;;;5075486;28;20429;-85
2022/01/18 10:30:43;;;;;;;157.43;67.90;;;;;;;;;;5078768;28;20487;-84
2022/01/18 10:33:13;;;;;;;140.60;61.47;;;;;;;;;;5069517;28;20428;-84
2022/01/18 10:36:16;;;;;;;143.10;63.37;;;;;;;;;;5072146;28;21351;-85
2022/01/18 10:38:43;;;;;;;149.47;62.50;;;;;;;;;;5014466;28;20426;-85
2022/01/18 10:41:28;;;;;;;126.23;57.73;;;;;;;;;;5065100;28;20424;-84
2022/01/18 10:44:06;;;;;;;145.40;62.13;;;;;;;;;;5070861;28;21144;-85
2022/01/18 10:46:34;;;;;;;140.33;62.47;;;;;;;;;;5075815;28;20417;-85
2022/01/18 10:49:00;;;;;;;129.70;59.87;;;;;;;;;;5069804;28;20432;-85
2022/01/18 10:51:27;;;;;;;136.43;60.33;;;;;;;;;;5075513;28;20467;-85
2022/01/18 10:53:58;;;;;;;134.20;62.63;;;;;;;;;;5074144;28;20559;-85
2022/01/18 10:56:24;;;;;;;144.20;65.00;;;;;;;;;;5077207;28;20421;-85
2022/01/18 10:58:57;;;;;;;126.67;56.63;;;;;;;;;;5080267;28;20466;-87
2022/01/18 11:01:24;;;;;;;149.77;64.37;;;;;;;;;;5074035;28;21336;-86
2022/01/18 11:04:06;;;;;;;138.67;64.10;;;;;;;;;;5072989;28;20432;-86
2022/01/18 11:06:32;;;;;;;133.77;61.13;;;;;;;;;;5072208;28;20528;-86
2022/01/18 11:09:09;;;;;;;138.10;63.13;;;;;;;;;;5072131;28;20444;-89
2022/01/18 11:11:47;;;;;;;143.57;64.63;;;;;;;;;;5077880;28;20487;-87
2022/01/18 11:14:17;;;;;;;136.77;61.20;;;;;;;;;;5072725;28;20453;-88
2022/01/18 11:16:44;;;;;;;138.07;63.63;;;;;;;;;;5072156;28;20544;-88
2022/01/18 11:19:29;;;;;;;132.30;60.83;;;;;;;;;;5074125;28;20433;-88
2022/01/18 11:22:04;;;;;;;131.73;62.07;;;;;;;;;;5073904;28;20424;-88
2022/01/18 11:24:31;;;;;;;141.70;62.97;;;;;;;;;;5076176;28;21000;-87
2022/01/18 11:26:58;;;;;;;149.33;65.00;;;;;;;;;;5078313;28;21151;-87
2022/01/18 11:29:26;;;;;;;140.87;64.27;;;;;;;;;;5069628;28;20445;-86
2022/01/18 11:31:53;;;;;;;124.13;59.37;;;;;;;;;;5069534;28;20530;-87
2022/01/18 11:34:41;;;;;;;143.30;63.17;;;;;;;;;;5075042;28;20448;-87
2022/01/18 11:37:17;;;;;;;138.17;62.10;;;;;;;;;;5073142;28;20441;-87
2022/01/18 11:39:43;;;;;;;148.47;64.43;;;;;;;;;;5073208;28;20428;-87
2022/01/18 11:42:12;;;;;;;135.47;60.10;;;;;;;;;;5070556;28;20461;-87
2022/01/18 11:44:39;;;;;;;135.33;61.50;;;;;;;;;;5068971;28;20428;-87
2022/01/18 11:47:06;;;;;;;134.90;61.43;;;;;;;;;;5075581;28;21096;-87
2022/01/18 11:49:33;;;;;;;127.53;60.47;;;;;;;;;;5071854;28;21329;-88
2022/01/18 11:52:09;;;;;;;137.40;61.93;;;;;;;;;;5072536;28;21079;-87
2022/01/18 11:57:25;;;;;;;142.33;65.27;;;;;;;;;;5067392;28;20417;-87
2022/01/18 11:59:52;;;;;;;132.43;60.60;;;;;;;;;;5068659;28;20425;-88
2022/01/18 12:02:29;;;;;;;136.97;63.10;;;;;;;;;;5072023;28;20424;-87
2022/01/18 12:04:57;;;;;;;145.20;65.73;;;;;;;;;;5070390;28;20488;-87
2022/01/18 12:07:36;;;;;;;137.73;63.00;;;;;;;;;;5071745;28;21096;-87
2022/01/18 12:10:33;;;;;;;145.47;65.37;;;;;;;;;;5070976;28;20424;-88
2022/01/18 12:13:01;;;;;;;136.10;61.70;;;;;;;;;;5068384;28;20506;-88
2022/01/18 12:15:27;;;;;;;139.83;64.87;;;;;;;;;;5071853;28;20537;-87
2022/01/18 12:18:04;;;;;;;135.43;61.90;;;;;;;;;;5072378;28;20425;-87
2022/01/18 12:20:37;;;;;;;138.73;64.23;;;;;;;;;;5075072;28;20881;-87
2022/01/18 12:23:22;;;;;;;127.67;59.97;;;;;;;;;;5074712;28;20490;-87
2022/01/18 12:25:56;;;;;;;133.13;62.87;;;;;;;;;;5069149;28;20421;-87
2022/01/18 12:31:41;;;;;;;128.00;61.73;;;;;;;;;;5074941;28;20415;-87
2022/01/18 12:34:29;;;;;;;135.90;61.87;;;;;;;;;;5073571;28;20922;-87
2022/01/18 12:37:07;;;;;;;138.90;66.20;;;;;;;;;;5067820;28;20420;-87
2022/01/18 12:45:12;;;;;;;125.30;61.87;;;;;;;;;;5070629;28;20428;-88
2022/01/18 12:47:48;;;;;;;124.47;61.77;;;;;;;;;;5071591;28;20420;-87
2022/01/18 12:50:15;;;;;;;122.93;59.93;;;;;;;;;;5072779;28;20520;-88
2022/01/18 12:52:48;;;;;;;142.67;66.40;;;;;;;;;;5071154;28;20526;-88
2022/01/18 12:55:46;;;;;;;129.03;63.23;;;;;;;;;;5077543;28;21040;-88
2022/01/18 12:58:15;;;;;;;125.67;65.17;;;;;;;;;;5063034;28;20430;-87
2022/01/18 13:00:49;;;;;;;140.90;67.27;;;;;;;;;;5072758;28;20425;-88
2022/01/18 13:03:29;;;;;;;123.60;61.37;;;;;;;;;;5077868;28;21118;-88
2022/01/18 13:05:59;;;;;;;123.53;61.57;;;;;;;;;;5075172;28;20416;-88
2022/01/18 13:08:28;;;;;;;124.47;60.17;;;;;;;;;;5070611;28;20436;-88
2022/01/18 13:10:55;;;;;;;126.43;63.60;;;;;;;;;;5071319;28;20456;-88
2022/01/18 13:13:23;;;;;;;129.50;63.77;;;;;;;;;;5077047;28;20429;-88
2022/01/18 13:26:28;;;;;;;125.37;62.87;;;;;;;;;;5073922;28;20539;-87
2022/01/18 13:28:55;;;;;;;124.83;63.70;;;;;;;;;;5073732;28;20429;-88
2022/01/18 13:31:26;;;;;;;129.00;64.00;;;;;;;;;;5068940;28;20474;-88
2022/01/18 13:33:57;;;;;;;124.93;64.10;;;;;;;;;;5072818;28;20445;-87
2022/01/18 13:36:24;;;;;;;120.30;61.93;;;;;;;;;;5076865;28;21245;-87
2022/01/18 13:38:51;;;;;;;125.97;66.67;;;;;;;;;;5077091;28;20432;-88
2022/01/18 13:41:18;;;;;;;113.07;61.27;;;;;;;;;;5057259;28;20433;-88
2022/01/18 13:43:44;;;;;;;120.13;63.13;;;;;;;;;;5075784;28;20501;-88
2022/01/18 13:46:10;;;;;;;127.47;64.30;;;;;;;;;;5069165;28;20481;-87
2022/01/18 13:48:37;;;;;;;122.63;66.63;;;;;;;;;;5071124;28;20449;-88
2022/01/18 13:51:14;;;;;;;129.77;66.87;;;;;;;;;;5074424;28;21124;-88
2022/01/18 13:53:41;;;;;;;124.03;63.90;;;;;;;;;;5072936;28;20451;-88
2022/01/18 13:56:19;;;;;;;132.17;66.57;;;;;;;;;;5074078;28;20425;-88
2022/01/18 13:58:47;;;;;;;124.23;64.60;;;;;;;;;;5073830;28;21028;-88
2022/01/18 14:01:21;;;;;;;126.30;64.60;;;;;;;;;;5074168;28;20421;-88
2022/01/18 14:03:49;;;;;;;113.47;61.67;;;;;;;;;;5072135;28;20541;-88
2022/01/18 14:06:16;;;;;;;117.37;62.57;;;;;;;;;;5073042;28;20524;-88
2022/01/18 14:08:45;;;;;;;125.17;65.57;;;;;;;;;;5068173;28;20434;-88
2022/01/18 14:11:12;;;;;;;124.53;63.03;;;;;;;;;;5071904;28;20437;-89
2022/01/18 14:13:39;;;;;;;125.87;63.77;;;;;;;;;;5069297;28;20413;-88
2022/01/18 14:16:24;;;;;;;129.03;64.83;;;;;;;;;;5072617;28;21296;-88
2022/01/18 14:19:09;;;;;;;124.07;65.83;;;;;;;;;;5072835;28;20413;-88
2022/01/18 14:21:46;;;;;;;130.97;65.40;;;;;;;;;;5075179;28;20428;-87
2022/01/18 14:24:12;;;;;;;123.53;65.43;;;;;;;;;;5071541;28;20523;-88
2022/01/18 14:26:41;;;;;;;126.90;65.97;;;;;;;;;;5072056;28;20437;-88
2022/01/18 14:29:07;;;;;;;121.10;65.53;;;;;;;;;;5073872;28;21664;-87
2022/01/18 14:31:34;;;;;;;130.30;69.47;;;;;;;;;;5070157;28;20416;-88
2022/01/18 14:34:00;;;;;;;119.20;65.27;;;;;;;;;;5072004;28;20453;-88
2022/01/18 14:36:26;;;;;;;135.80;71.27;;;;;;;;;;5068970;28;20413;-88
2022/01/18 14:39:10;;;;;;;134.63;70.20;;;;;;;;;;5074815;28;20420;-88
2022/01/18 14:41:36;;;;;;;137.47;69.53;;;;;;;;;;5075318;28;21522;-88
2022/01/18 14:44:13;;;;;;;138.67;69.40;;;;;;;;;;5072141;28;20626;-88
2022/01/18 14:46:58;;;;;;;143.03;71.17;;;;;;;;;;5067227;28;20427;-88
2022/01/18 14:49:24;;;;;;;137.57;72.80;;;;;;;;;;5076209;28;20871;-88
2022/01/18 14:51:50;;;;;;;137.17;69.90;;;;;;;;;;5076150;28;20459;-88
2022/01/18 14:54:16;;;;;;;149.33;74.07;;;;;;;;;;5071712;28;20509;-88
2022/01/18 14:56:42;;;;;;;143.37;73.43;;;;;;;;;;5066168;28;20425;-87
2022/01/18 14:59:09;;;;;;;146.40;72.20;;;;;;;;;;5072956;28;20424;-87
2022/01/18 15:01:36;;;;;;;144.43;69.43;;;;;;;;;;5067725;28;20870;-87
2022/01/18 15:04:02;;;;;;;143.53;73.20;;;;;;;;;;5071751;28;20444;-88
2022/01/18 15:06:28;;;;;;;135.10;70.00;;;;;;;;;;5070359;28;21299;-88
2022/01/18 15:08:54;;;;;;;142.93;72.50;;;;;;;;;;5074262;28;20436;-86
2022/01/18 15:11:20;;;;;;;133.73;69.70;;;;;;;;;;5070963;28;20416;-88
2022/01/18 15:13:46;;;;;;;142.83;72.47;;;;;;;;;;5073478;28;20448;-88
2022/01/18 15:16:13;;;;;;;144.07;73.23;;;;;;;;;;5069820;28;20413;-88
2022/01/18 15:18:39;;;;;;;131.17;67.70;;;;;;;;;;5070090;28;20514;-88
2022/01/18 15:21:05;;;;;;;139.63;72.13;;;;;;;;;;5071912;28;21293;-88
2022/01/18 15:23:31;;;;;;;144.23;73.37;;;;;;;;;;5075251;28;21100;-88
2022/01/18 15:25:59;;;;;;;160.27;75.63;;;;;;;;;;5069919;28;20417;-88
2022/01/18 15:28:25;;;;;;;139.10;70.80;;;;;;;;;;5075207;28;21109;-87
2022/01/18 15:30:52;;;;;;;153.70;73.23;;;;;;;;;;5075856;28;21139;-86
2022/01/18 15:33:18;;;;;;;153.17;74.70;;;;;;;;;;5072386;28;20429;-86
2022/01/18 15:35:44;;;;;;;146.60;73.33;;;;;;;;;;5071315;28;20498;-86
2022/01/18 15:38:10;;;;;;;178.47;80.97;;;;;;;;;;5071397;28;20424;-85
2022/01/18 15:40:36;;;;;;;154.10;74.63;;;;;;;;;;5073591;28;20465;-85
2022/01/18 15:43:02;;;;;;;163.50;75.03;;;;;;;;;;5072113;28;20428;-85
2022/01/18 15:45:28;;;;;;;192.40;85.37;;;;;;;;;;5071969;28;20420;-86
2022/01/18 15:47:56;;;;;;;231.20;95.23;;;;;;;;;;5071452;28;20417;-86